Time;durP1;ratioP1;P1;durP2;ratioP2;P2;SDS_P1;SDS_P2;PMS_P1;PMS_P2;Temp;Humidity;BMP_temperature;BMP_pressure;BME280_temperature;BME280_humidity;BME280_pressure;Samples;Min_cycle;Max_cycle;Signal;HPM_P1;HPM_P2
2023/10/19 00:01:15;;;;;;;9.27;8.97;;;8.70;99.90;;;;;;5141080;27;20232;-82
2023/10/19 00:03:42;;;;;;;8.83;8.63;;;8.70;99.90;;;;;;5141059;27;20281;-82
2023/10/19 00:06:13;;;;;;;8.97;8.70;;;8.70;99.90;;;;;;5141025;27;20243;-82
2023/10/19 00:08:41;;;;;;;9.50;9.20;;;8.70;99.90;;;;;;5142247;27;20236;-82
2023/10/19 00:11:21;;;;;;;9.50;9.20;;;8.70;99.90;;;;;;5142001;27;20236;-81
2023/10/19 00:13:49;;;;;;;9.63;9.33;;;8.70;99.90;;;;;;5142689;27;20243;-82
2023/10/19 00:16:22;;;;;;;9.67;9.37;;;8.70;99.90;;;;;;5141384;27;20236;-81
2023/10/19 00:18:48;;;;;;;9.70;9.40;;;8.70;99.90;;;;;;5140978;27;20220;-81
2023/10/19 00:21:23;;;;;;;9.70;9.40;;;8.70;99.90;;;;;;5141316;27;20329;-82
2023/10/19 00:23:56;;;;;;;9.83;9.53;;;8.70;99.90;;;;;;5140365;27;20310;-82
2023/10/19 00:26:25;;;;;;;9.90;9.60;;;8.70;99.90;;;;;;5141080;27;20219;-82
2023/10/19 00:28:55;;;;;;;9.70;9.40;;;8.70;99.90;;;;;;5135652;27;20243;-81
2023/10/19 00:31:23;;;;;;;9.70;9.40;;;8.70;99.90;;;;;;5126508;27;20237;-81
2023/10/19 00:33:54;;;;;;;9.53;9.23;;;8.80;99.90;;;;;;5126243;27;20279;-82
2023/10/19 00:36:25;;;;;;;9.93;9.63;;;8.70;99.90;;;;;;5126817;27;20217;-82
2023/10/19 00:39:14;;;;;;;9.50;9.20;;;8.80;99.90;;;;;;5126501;27;20292;-79
2023/10/19 00:41:43;;;;;;;9.60;9.30;;;8.80;99.90;;;;;;5128807;27;20323;-82
2023/10/19 00:44:11;;;;;;;9.63;9.33;;;8.80;99.90;;;;;;5128775;27;20249;-82
2023/10/19 00:46:43;;;;;;;9.70;9.40;;;8.80;99.90;;;;;;5128520;27;20221;-82
2023/10/19 00:49:13;;;;;;;9.60;9.30;;;8.80;99.90;;;;;;5126553;27;20220;-82
2023/10/19 00:51:54;;;;;;;9.60;9.30;;;8.90;99.90;;;;;;5125491;27;20292;-81
2023/10/19 00:54:31;;;;;;;9.53;9.23;;;8.80;99.90;;;;;;5110583;28;20232;-81
2023/10/19 00:57:04;;;;;;;9.50;9.20;;;8.90;99.90;;;;;;5113178;28;20237;-82
2023/10/19 00:59:35;;;;;;;9.23;8.93;;;8.90;99.90;;;;;;5119187;28;20220;-81
2023/10/19 01:02:16;;;;;;;9.03;8.73;;;8.90;99.90;;;;;;5109597;28;20244;-81
2023/10/19 01:04:44;;;;;;;8.80;8.60;;;8.90;99.90;;;;;;5124495;27;20315;-81
2023/10/19 01:07:15;;;;;;;9.13;8.83;;;8.90;99.90;;;;;;5105600;28;20225;-81
2023/10/19 01:09:46;;;;;;;9.23;8.93;;;8.90;99.90;;;;;;5105410;28;20226;-81
2023/10/19 01:15:13;;;;;;;9.50;9.20;;;8.90;99.90;;;;;;5111606;28;20232;-82
2023/10/19 01:17:45;;;;;;;9.80;9.50;;;8.90;99.90;;;;;;5125936;27;20229;-82
2023/10/19 01:20:38;;;;;;;9.23;8.93;;;8.90;99.90;;;;;;5126070;27;20223;-82
2023/10/19 01:25:59;;;;;;;9.70;9.40;;;8.80;99.90;;;;;;5107399;28;20718;-82
2023/10/19 01:28:42;;;;;;;9.73;9.43;;;8.80;99.90;;;;;;5105552;28;20225;-82
2023/10/19 01:31:16;;;;;;;9.77;9.47;;;8.80;99.90;;;;;;5104959;28;20320;-83
2023/10/19 01:33:45;;;;;;;9.80;9.50;;;8.80;99.90;;;;;;5105212;28;20237;-82
2023/10/19 01:36:14;;;;;;;9.80;9.50;;;8.80;99.90;;;;;;5105030;28;20253;-82
2023/10/19 01:38:42;;;;;;;9.50;9.20;;;8.80;99.90;;;;;;5104996;28;20306;-82
2023/10/19 01:41:15;;;;;;;9.50;9.20;;;8.80;99.90;;;;;;5104214;28;20209;-81
2023/10/19 01:43:42;;;;;;;9.17;8.87;;;8.70;99.90;;;;;;5107954;28;20271;-82
2023/10/19 01:46:21;;;;;;;9.20;8.90;;;8.70;99.90;;;;;;5106017;28;20234;-82
2023/10/19 01:48:50;;;;;;;9.50;9.20;;;8.70;99.90;;;;;;5105232;28;20226;-82
2023/10/19 01:51:17;;;;;;;9.50;9.20;;;8.80;99.90;;;;;;5106724;28;20283;-82
2023/10/19 01:53:49;;;;;;;9.60;9.30;;;8.70;99.90;;;;;;5106888;28;20257;-82
2023/10/19 01:56:18;;;;;;;9.60;9.30;;;8.70;99.90;;;;;;5106498;28;20233;-82
2023/10/19 01:58:46;;;;;;;9.50;9.20;;;8.70;99.90;;;;;;5105914;28;20241;-81
2023/10/19 02:01:20;;;;;;;9.50;9.20;;;8.70;99.90;;;;;;5104991;28;20237;-82
2023/10/19 02:03:55;;;;;;;9.17;8.87;;;8.70;99.90;;;;;;5105025;28;20229;-81
2023/10/19 02:06:21;;;;;;;9.40;9.10;;;8.70;99.90;;;;;;5105703;28;20312;-82
2023/10/19 02:09:00;;;;;;;9.47;9.17;;;8.80;99.90;;;;;;5105009;28;20225;-82
2023/10/19 02:11:28;;;;;;;9.60;9.30;;;8.80;99.90;;;;;;5103865;28;20229;-82
2023/10/19 02:14:00;;;;;;;9.60;9.30;;;8.80;99.90;;;;;;5104439;28;20241;-82
2023/10/19 02:16:29;;;;;;;9.50;9.20;;;8.80;99.90;;;;;;5105088;28;20257;-82
2023/10/19 02:18:58;;;;;;;9.37;9.07;;;8.80;99.90;;;;;;5105284;28;20263;-81
2023/10/19 02:21:30;;;;;;;9.30;9.00;;;8.80;99.90;;;;;;5105610;28;20233;-81
2023/10/19 02:23:59;;;;;;;9.50;9.20;;;8.90;99.90;;;;;;5106964;28;20236;-82
2023/10/19 02:26:27;;;;;;;9.37;9.07;;;8.90;99.90;;;;;;5105172;28;20236;-81
2023/10/19 02:28:55;;;;;;;9.33;9.03;;;8.80;99.90;;;;;;5104804;28;20229;-81
2023/10/19 02:31:37;;;;;;;9.53;9.23;;;8.80;99.90;;;;;;5106565;28;20283;-82
2023/10/19 02:34:04;;;;;;;9.43;9.13;;;8.80;99.90;;;;;;5109482;28;20256;-81
2023/10/19 02:36:37;;;;;;;9.03;8.73;;;8.80;99.90;;;;;;5116767;27;20229;-82
2023/10/19 02:39:08;;;;;;;9.20;8.90;;;8.90;99.90;;;;;;5125207;27;20221;-81
2023/10/19 02:41:36;;;;;;;9.03;8.73;;;8.90;99.90;;;;;;5124907;27;20224;-82
2023/10/19 02:44:08;;;;;;;9.10;8.80;;;8.90;99.90;;;;;;5126305;27;20225;-81
2023/10/19 02:46:38;;;;;;;8.70;8.50;;;8.90;99.90;;;;;;5124975;27;20232;-81
2023/10/19 02:49:10;;;;;;;8.70;8.50;;;8.90;99.90;;;;;;5111482;27;20229;-81
2023/10/19 02:51:39;;;;;;;8.60;8.40;;;8.90;99.90;;;;;;5119613;28;20267;-81
2023/10/19 02:54:17;;;;;;;9.07;8.77;;;9.00;99.90;;;;;;5109087;28;20233;-81
2023/10/19 02:56:47;;;;;;;9.20;8.90;;;9.00;99.90;;;;;;5109535;27;20233;-81
2023/10/19 02:59:21;;;;;;;9.20;8.90;;;8.90;99.90;;;;;;5110580;27;20285;-81
2023/10/19 03:01:48;;;;;;;9.30;9.00;;;9.00;99.90;;;;;;5117495;28;20224;-81
2023/10/19 03:04:17;;;;;;;9.13;8.83;;;9.00;99.90;;;;;;5117085;28;20221;-81
2023/10/19 03:06:43;;;;;;;9.03;8.73;;;9.00;99.90;;;;;;5113788;28;20237;-82
2023/10/19 03:09:22;;;;;;;9.03;8.73;;;9.00;99.90;;;;;;5117182;28;20236;-81
2023/10/19 03:11:52;;;;;;;9.00;8.70;;;9.00;99.90;;;;;;5121386;27;20235;-82
2023/10/19 03:14:25;;;;;;;8.80;8.57;;;9.00;99.90;;;;;;5118001;28;20237;-81
2023/10/19 03:16:51;;;;;;;8.60;8.40;;;9.00;99.90;;;;;;5115087;27;20252;-82
2023/10/19 03:22:00;;;;;;;8.40;8.20;;;9.00;99.90;;;;;;5123840;27;20220;-81
2023/10/19 03:24:40;;;;;;;9.20;8.90;;;9.00;99.90;;;;;;5123969;27;20232;-82
2023/10/19 03:27:12;;;;;;;9.00;8.70;;;9.00;99.90;;;;;;5124678;27;20248;-81
2023/10/19 03:29:39;;;;;;;9.00;8.70;;;8.90;99.90;;;;;;5123912;27;20285;-81
2023/10/19 03:32:07;;;;;;;9.27;8.97;;;8.90;99.90;;;;;;5123782;27;20227;-81
2023/10/19 03:34:37;;;;;;;9.00;8.70;;;8.90;99.90;;;;;;5123206;27;20247;-83
2023/10/19 03:37:09;;;;;;;8.93;8.63;;;8.90;99.90;;;;;;5123802;27;20240;-81
2023/10/19 03:39:38;;;;;;;8.77;8.57;;;8.90;99.90;;;;;;5123573;27;20244;-81
2023/10/19 03:42:06;;;;;;;9.10;8.80;;;8.80;99.90;;;;;;5123580;27;20241;-81
2023/10/19 03:44:43;;;;;;;9.07;8.77;;;8.90;99.90;;;;;;5123683;27;20228;-81
2023/10/19 03:47:14;;;;;;;8.97;8.67;;;8.90;99.90;;;;;;5124475;27;20284;-79
2023/10/19 03:49:43;;;;;;;8.70;8.50;;;8.90;99.90;;;;;;5124558;27;20318;-79
2023/10/19 03:54:53;;;;;;;8.97;8.67;;;8.90;99.90;;;;;;5122904;27;20296;-80
2023/10/19 03:57:22;;;;;;;9.00;8.70;;;8.90;99.90;;;;;;5123728;27;20259;-80
2023/10/19 03:59:52;;;;;;;8.90;8.60;;;8.90;99.90;;;;;;5123537;27;20229;-80
2023/10/19 04:02:20;;;;;;;9.00;8.70;;;8.90;99.90;;;;;;5115872;27;20233;-80
2023/10/19 04:04:49;;;;;;;9.03;8.73;;;8.90;99.90;;;;;;5113073;28;20229;-80
2023/10/19 04:07:20;;;;;;;8.83;8.57;;;8.90;99.90;;;;;;5106673;28;20228;-80
2023/10/19 04:09:59;;;;;;;8.90;8.60;;;8.90;99.90;;;;;;5106932;28;20260;-80
2023/10/19 04:12:35;;;;;;;8.87;8.57;;;8.80;99.90;;;;;;5113765;28;20224;-80
2023/10/19 04:15:10;;;;;;;8.90;8.60;;;8.80;99.90;;;;;;5107035;28;20229;-80
2023/10/19 04:17:38;;;;;;;8.60;8.40;;;8.80;99.90;;;;;;5105863;28;20243;-80
2023/10/19 04:20:26;;;;;;;8.90;8.60;;;8.70;99.90;;;;;;5105741;28;20225;-80
2023/10/19 04:23:05;;;;;;;8.60;8.40;;;8.70;99.90;;;;;;5106147;28;20780;-80
2023/10/19 04:25:35;;;;;;;8.60;8.40;;;8.80;99.90;;;;;;5107877;28;20315;-80
2023/10/19 04:28:10;;;;;;;8.30;8.10;;;8.70;99.90;;;;;;5105968;28;20233;-80
2023/10/19 04:30:37;;;;;;;8.70;8.50;;;8.70;99.90;;;;;;5105903;28;20245;-80
2023/10/19 04:33:09;;;;;;;8.53;8.33;;;8.70;99.90;;;;;;5123078;28;20295;-80
2023/10/19 04:35:37;;;;;;;8.60;8.40;;;8.70;99.90;;;;;;5113241;27;20229;-80
2023/10/19 04:38:07;;;;;;;8.90;8.60;;;8.70;99.90;;;;;;5109563;28;20259;-80
2023/10/19 04:40:35;;;;;;;8.20;8.00;;;8.70;99.90;;;;;;5125771;27;20374;-81
2023/10/19 04:43:06;;;;;;;8.30;8.10;;;8.70;99.90;;;;;;5125768;27;20229;-81
2023/10/19 04:45:33;;;;;;;8.30;8.10;;;8.70;99.90;;;;;;5118386;27;20240;-80
2023/10/19 04:48:04;;;;;;;8.13;7.93;;;8.70;99.90;;;;;;5117801;28;20286;-82
2023/10/19 04:50:32;;;;;;;8.00;7.80;;;8.70;99.90;;;;;;5126169;27;20236;-80
2023/10/19 04:53:00;;;;;;;8.10;7.90;;;8.70;99.90;;;;;;5126225;27;20262;-80
2023/10/19 04:55:29;;;;;;;8.30;8.10;;;8.60;99.90;;;;;;5126255;27;20229;-80
2023/10/19 04:58:10;;;;;;;8.20;8.00;;;8.70;99.90;;;;;;5126036;27;20255;-80
2023/10/19 05:00:41;;;;;;;7.60;7.40;;;8.60;99.90;;;;;;5125544;27;20234;-80
2023/10/19 05:03:08;;;;;;;8.10;7.90;;;8.60;99.90;;;;;;5125718;28;20282;-80
2023/10/19 05:05:38;;;;;;;8.13;7.93;;;8.60;99.90;;;;;;5126509;27;20232;-82
2023/10/19 05:08:07;;;;;;;8.10;7.90;;;8.60;99.90;;;;;;5126207;27;20275;-80
2023/10/19 05:10:36;;;;;;;8.30;8.10;;;8.60;99.90;;;;;;5125383;27;20224;-80
2023/10/19 05:13:05;;;;;;;8.20;8.00;;;8.60;99.90;;;;;;5129935;27;20233;-80
2023/10/19 05:15:35;;;;;;;7.90;7.70;;;8.60;99.90;;;;;;5128947;27;20239;-79
2023/10/19 05:18:10;;;;;;;8.70;8.50;;;8.60;99.90;;;;;;5129170;27;20232;-80
2023/10/19 05:20:40;;;;;;;8.63;8.43;;;8.60;99.90;;;;;;5127878;27;20236;-80
2023/10/19 05:23:10;;;;;;;8.50;8.30;;;8.60;99.90;;;;;;5112683;28;20659;-82
2023/10/19 05:25:42;;;;;;;8.43;8.23;;;8.60;99.90;;;;;;5122812;28;20284;-80
2023/10/19 05:28:10;;;;;;;8.50;8.30;;;8.60;99.90;;;;;;5125882;27;20246;-80
2023/10/19 05:30:49;;;;;;;8.30;8.10;;;8.60;99.90;;;;;;5116711;27;20230;-80
2023/10/19 05:33:23;;;;;;;8.50;8.30;;;8.60;99.90;;;;;;5120875;28;20232;-83
2023/10/19 05:35:57;;;;;;;8.50;8.30;;;8.70;99.90;;;;;;5127218;27;20247;-80
2023/10/19 05:38:25;;;;;;;8.57;8.37;;;8.70;99.90;;;;;;5126069;27;20328;-80
2023/10/19 05:41:05;;;;;;;8.50;8.30;;;8.70;99.90;;;;;;5125897;27;20245;-82
2023/10/19 05:43:34;;;;;;;8.23;8.03;;;8.70;99.90;;;;;;5125664;27;20239;-80
2023/10/19 05:46:03;;;;;;;8.13;7.93;;;8.70;99.90;;;;;;5113240;28;20244;-81
2023/10/19 05:48:36;;;;;;;8.20;8.00;;;8.70;99.90;;;;;;5110999;28;20225;-80
2023/10/19 05:51:04;;;;;;;8.07;7.87;;;8.70;99.90;;;;;;5111939;28;20249;-80
2023/10/19 05:53:32;;;;;;;8.00;7.80;;;8.70;99.90;;;;;;5118866;28;20244;-80
2023/10/19 05:56:02;;;;;;;7.90;7.70;;;8.80;99.90;;;;;;5124571;27;20225;-80
2023/10/19 05:58:30;;;;;;;8.23;8.03;;;8.80;99.90;;;;;;5120273;28;20237;-80
2023/10/19 06:01:00;;;;;;;7.70;7.50;;;8.70;99.90;;;;;;5131670;28;20241;-80
2023/10/19 06:03:29;;;;;;;7.67;7.47;;;8.80;99.90;;;;;;5132993;27;20237;-79
2023/10/19 06:06:02;;;;;;;7.60;7.40;;;8.80;99.90;;;;;;5131973;27;20228;-81
2023/10/19 06:08:31;;;;;;;8.60;8.40;;;8.80;99.90;;;;;;5131942;28;20386;-83
2023/10/19 06:10:58;;;;;;;8.60;8.40;;;8.80;99.90;;;;;;5133686;28;20244;-84
2023/10/19 06:13:38;;;;;;;8.63;8.43;;;8.80;99.90;;;;;;5133307;27;20231;-83
2023/10/19 06:16:05;;;;;;;8.50;8.30;;;8.90;99.90;;;;;;5132387;27;20246;-84
2023/10/19 06:18:45;;;;;;;8.43;8.23;;;8.90;99.90;;;;;;5130827;28;20240;-83
2023/10/19 06:21:32;;;;;;;8.80;8.60;;;8.90;99.90;;;;;;5133347;28;20248;-84
2023/10/19 06:24:00;;;;;;;8.20;8.00;;;8.90;99.90;;;;;;5133965;28;20268;-84
2023/10/19 06:26:39;;;;;;;8.03;7.83;;;8.90;99.90;;;;;;5133674;27;20256;-84
2023/10/19 06:29:08;;;;;;;8.17;7.97;;;8.90;99.90;;;;;;5134109;27;20301;-84
2023/10/19 06:31:38;;;;;;;8.17;7.97;;;8.90;99.90;;;;;;5133692;27;20294;-84
2023/10/19 06:34:06;;;;;;;8.20;8.00;;;8.90;99.90;;;;;;5134612;27;20205;-84
2023/10/19 06:36:56;;;;;;;8.07;7.87;;;8.90;99.90;;;;;;5133482;28;20231;-84
2023/10/19 06:39:25;;;;;;;7.90;7.70;;;8.90;99.90;;;;;;5134140;28;20233;-84
2023/10/19 06:41:54;;;;;;;7.60;7.40;;;8.90;99.90;;;;;;5133473;28;20244;-84
2023/10/19 06:47:02;;;;;;;7.90;7.70;;;8.90;99.90;;;;;;5132413;27;20212;-84
2023/10/19 06:49:31;;;;;;;7.70;7.50;;;9.00;99.90;;;;;;5130427;28;20299;-83
2023/10/19 06:54:57;;;;;;;8.00;7.80;;;8.90;99.90;;;;;;5106924;28;20279;-82
2023/10/19 06:57:27;;;;;;;7.60;7.40;;;9.00;99.90;;;;;;5107570;28;20221;-83
2023/10/19 06:59:55;;;;;;;7.70;7.50;;;9.00;99.90;;;;;;5107667;28;20259;-84
2023/10/19 07:02:34;;;;;;;7.73;7.53;;;9.10;99.90;;;;;;5107082;28;20293;-82
2023/10/19 07:05:03;;;;;;;7.60;7.40;;;9.20;99.90;;;;;;5106792;28;20247;-82
2023/10/19 07:07:33;;;;;;;7.43;7.23;;;9.20;99.90;;;;;;5125483;28;20233;-84
2023/10/19 07:10:03;;;;;;;7.60;7.40;;;9.30;99.90;;;;;;5125780;28;20233;-83
2023/10/19 07:12:32;;;;;;;7.93;7.73;;;9.30;99.90;;;;;;5125570;27;20221;-82
2023/10/19 07:15:03;;;;;;;7.70;7.50;;;9.40;99.90;;;;;;5126959;27;20241;-82
2023/10/19 07:17:31;;;;;;;7.90;7.70;;;9.40;99.90;;;;;;5126287;28;20279;-82
2023/10/19 07:20:02;;;;;;;7.97;7.77;;;9.60;99.90;;;;;;5128263;27;20232;-82
2023/10/19 07:22:31;;;;;;;7.70;7.50;;;9.70;99.90;;;;;;5127442;28;20263;-82
2023/10/19 07:24:59;;;;;;;7.80;7.60;;;9.80;99.90;;;;;;5128593;27;20271;-82
2023/10/19 07:27:29;;;;;;;8.17;7.97;;;9.80;99.90;;;;;;5127090;27;20256;-83
2023/10/19 07:30:01;;;;;;;8.40;8.20;;;9.90;99.90;;;;;;5124798;27;20225;-84
2023/10/19 07:32:28;;;;;;;8.30;8.10;;;10.00;99.90;;;;;;5127102;28;20259;-86
2023/10/19 07:34:58;;;;;;;8.47;8.27;;;10.00;99.90;;;;;;5127638;28;20298;-85
2023/10/19 07:37:27;;;;;;;8.40;8.20;;;10.10;99.90;;;;;;5130297;27;20239;-83
2023/10/19 07:39:58;;;;;;;8.57;8.37;;;10.10;99.90;;;;;;5131784;28;20268;-83
2023/10/19 07:42:25;;;;;;;8.50;8.30;;;10.10;99.90;;;;;;5131425;27;20237;-83
2023/10/19 07:44:54;;;;;;;8.73;8.53;;;10.20;99.90;;;;;;5129313;27;20229;-83
2023/10/19 07:47:33;;;;;;;8.70;8.50;;;10.20;99.90;;;;;;5128792;27;20233;-82
2023/10/19 07:50:03;;;;;;;8.80;8.60;;;10.20;99.90;;;;;;5128823;28;20307;-82
2023/10/19 07:52:32;;;;;;;8.60;8.40;;;10.30;99.90;;;;;;5128848;28;20232;-83
2023/10/19 07:55:03;;;;;;;8.70;8.50;;;10.30;99.90;;;;;;5129347;28;20225;-83
2023/10/19 07:57:30;;;;;;;8.73;8.53;;;10.30;99.90;;;;;;5129030;28;20300;-83
2023/10/19 07:59:58;;;;;;;9.47;9.17;;;10.40;99.90;;;;;;5129268;28;20286;-80
2023/10/19 08:02:40;;;;;;;9.20;8.90;;;10.30;99.90;;;;;;5127715;28;20242;-81
2023/10/19 08:05:08;;;;;;;8.97;8.77;;;10.50;99.90;;;;;;5127895;27;20213;-82
2023/10/19 08:07:38;;;;;;;9.60;9.30;;;10.70;99.90;;;;;;5127563;28;20228;-80
2023/10/19 08:10:13;;;;;;;9.50;9.20;;;10.80;99.90;;;;;;5109719;28;20236;-81
2023/10/19 08:12:41;;;;;;;9.40;9.10;;;10.90;99.90;;;;;;5115763;28;20288;-81
2023/10/19 08:15:15;;;;;;;9.70;9.40;;;10.90;99.90;;;;;;5121667;28;20234;-81
2023/10/19 08:17:44;;;;;;;9.90;9.60;;;10.90;99.90;;;;;;5107213;28;20234;-80
2023/10/19 08:20:22;;;;;;;9.67;9.37;;;10.90;99.90;;;;;;5106273;28;20305;-80
2023/10/19 08:22:51;;;;;;;9.70;9.40;;;10.90;99.90;;;;;;5106482;28;20225;-81
2023/10/19 08:28:07;;;;;;;9.50;9.20;;;10.90;99.90;;;;;;5105992;27;20275;-80
2023/10/19 08:30:37;;;;;;;9.67;9.37;;;11.00;99.90;;;;;;5105422;28;20324;-81
2023/10/19 08:33:06;;;;;;;9.90;9.60;;;11.10;99.90;;;;;;5106580;28;20289;-81
2023/10/19 08:35:37;;;;;;;9.80;9.50;;;11.20;99.90;;;;;;5105900;28;20278;-81
2023/10/19 08:38:17;;;;;;;9.93;9.63;;;11.40;99.90;;;;;;5106361;28;20239;-80
2023/10/19 08:40:51;;;;;;;10.00;9.70;;;11.50;99.90;;;;;;5105688;28;20237;-81
2023/10/19 08:43:24;;;;;;;10.27;9.97;;;11.50;99.90;;;;;;5105340;28;20249;-81
2023/10/19 08:45:52;;;;;;;10.23;9.93;;;11.60;99.90;;;;;;5106013;28;20254;-80
2023/10/19 08:48:22;;;;;;;10.33;10.03;;;11.50;99.90;;;;;;5106520;28;20241;-82
2023/10/19 08:50:51;;;;;;;10.40;10.10;;;11.60;99.90;;;;;;5106105;28;20307;-81
2023/10/19 08:53:21;;;;;;;10.20;9.90;;;11.60;99.90;;;;;;5105882;28;20221;-81
2023/10/19 08:55:54;;;;;;;10.40;10.10;;;11.70;99.90;;;;;;5106181;28;20225;-82
2023/10/19 08:58:22;;;;;;;10.23;9.93;;;11.70;99.90;;;;;;5106082;28;20286;-82
2023/10/19 09:00:53;;;;;;;10.20;9.90;;;11.70;99.90;;;;;;5105974;28;20244;-82
2023/10/19 09:03:21;;;;;;;10.00;9.70;;;11.80;99.90;;;;;;5106041;28;20225;-82
2023/10/19 09:05:49;;;;;;;9.90;9.60;;;11.80;99.90;;;;;;5106524;28;20315;-82
2023/10/19 09:08:18;;;;;;;9.80;9.50;;;11.90;99.90;;;;;;5106775;28;20283;-80
2023/10/19 09:10:47;;;;;;;10.10;9.80;;;12.00;99.90;;;;;;5106884;28;20253;-82
2023/10/19 09:13:25;;;;;;;10.20;9.90;;;12.10;99.90;;;;;;5106641;28;20234;-83
2023/10/19 09:15:55;;;;;;;10.07;9.77;;;12.30;99.90;;;;;;5107085;28;20239;-83
2023/10/19 09:18:25;;;;;;;10.00;9.70;;;12.30;99.90;;;;;;5106650;28;20236;-82
2023/10/19 09:21:01;;;;;;;9.93;9.63;;;12.30;99.90;;;;;;5106769;28;20238;-82
2023/10/19 09:23:33;;;;;;;10.03;9.73;;;12.50;99.90;;;;;;5107483;28;20229;-83
2023/10/19 09:26:03;;;;;;;10.00;9.70;;;12.50;99.90;;;;;;5108459;28;20301;-83
2023/10/19 09:28:49;;;;;;;10.40;10.10;;;12.50;99.90;;;;;;5107403;28;20236;-83
2023/10/19 09:31:18;;;;;;;10.13;9.83;;;12.60;99.90;;;;;;5106650;28;20248;-82
2023/10/19 09:33:48;;;;;;;10.10;9.80;;;12.60;99.90;;;;;;5106422;28;20368;-82
2023/10/19 09:36:18;;;;;;;10.40;10.10;;;12.60;99.90;;;;;;5105493;28;20241;-83
2023/10/19 09:38:50;;;;;;;10.30;10.00;;;12.60;99.90;;;;;;5105200;28;20236;-81
2023/10/19 09:41:22;;;;;;;10.30;10.00;;;12.70;99.90;;;;;;5104692;28;20242;-82
2023/10/19 09:44:06;;;;;;;10.07;9.77;;;12.70;99.90;;;;;;5105213;28;20257;-82
2023/10/19 09:46:39;;;;;;;10.03;9.73;;;12.70;99.90;;;;;;5105497;28;20232;-82
2023/10/19 09:49:11;;;;;;;10.00;9.70;;;12.70;99.90;;;;;;5106033;28;20233;-82
2023/10/19 09:51:40;;;;;;;9.90;9.60;;;12.70;99.90;;;;;;5104734;28;20248;-82
2023/10/19 09:54:18;;;;;;;10.43;10.13;;;12.80;99.90;;;;;;5105343;28;20291;-82
2023/10/19 09:59:45;;;;;;;10.17;9.87;;;12.80;99.90;;;;;;5105310;28;20221;-82
2023/10/19 10:02:15;;;;;;;9.97;9.67;;;13.00;99.90;;;;;;5103671;28;20229;-82
2023/10/19 10:04:45;;;;;;;9.87;9.57;;;13.10;99.90;;;;;;5104881;28;20248;-82
2023/10/19 10:07:12;;;;;;;9.80;9.50;;;13.20;99.90;;;;;;5104770;28;20217;-82
2023/10/19 10:09:43;;;;;;;9.90;9.60;;;13.30;99.90;;;;;;5111001;28;20278;-82
2023/10/19 10:12:20;;;;;;;10.20;9.90;;;13.30;99.90;;;;;;5107442;28;20244;-82
2023/10/19 10:14:58;;;;;;;10.03;9.73;;;13.50;99.90;;;;;;5111911;28;20216;-84
2023/10/19 10:17:27;;;;;;;10.70;10.40;;;13.60;99.90;;;;;;5125718;27;20221;-82
2023/10/19 10:19:59;;;;;;;10.00;9.70;;;13.60;99.90;;;;;;5126029;28;20236;-82
2023/10/19 10:22:27;;;;;;;10.07;9.77;;;13.70;99.90;;;;;;5124790;28;20229;-81
2023/10/19 10:24:57;;;;;;;10.00;9.70;;;13.80;99.90;;;;;;5122713;27;20224;-80
2023/10/19 10:27:25;;;;;;;10.07;9.77;;;13.80;99.90;;;;;;5124042;27;20323;-81
2023/10/19 10:30:01;;;;;;;10.00;9.70;;;13.80;99.90;;;;;;5126115;28;21112;-80
2023/10/19 10:32:50;;;;;;;10.07;9.77;;;13.90;99.90;;;;;;5125600;27;20255;-84
2023/10/19 10:35:54;;;;;;;10.20;9.90;;;14.00;99.90;;;;;;5125871;28;20296;-81
2023/10/19 10:38:27;;;;;;;10.20;9.90;;;14.10;99.90;;;;;;5126165;28;20228;-83
2023/10/19 10:40:56;;;;;;;10.10;9.80;;;14.20;99.90;;;;;;5124755;28;20306;-82
2023/10/19 10:43:27;;;;;;;10.03;9.73;;;14.20;99.90;;;;;;5124358;28;20234;-83
2023/10/19 10:46:05;;;;;;;10.10;9.80;;;14.20;99.90;;;;;;5126960;28;20284;-84
2023/10/19 10:48:32;;;;;;;9.77;9.47;;;14.30;99.90;;;;;;5126865;27;20220;-84
2023/10/19 10:51:03;;;;;;;10.00;9.70;;;14.30;99.90;;;;;;5126695;28;20236;-84
2023/10/19 10:53:33;;;;;;;10.50;10.20;;;14.30;99.90;;;;;;5126454;28;20724;-83
2023/10/19 10:56:02;;;;;;;10.45;10.15;;;14.40;99.90;;;;;;5127089;27;20236;-85
2023/10/19 10:58:31;;;;;;;10.32;10.02;;;14.60;99.90;;;;;;5125777;28;20268;-85
2023/10/19 11:01:02;;;;;;;10.23;9.93;;;14.90;99.90;;;;;;5125222;28;20240;-83
2023/10/19 11:03:30;;;;;;;10.30;10.00;;;15.10;99.90;;;;;;5123948;27;20228;-83
2023/10/19 11:06:07;;;;;;;10.35;10.05;;;15.20;99.90;;;;;;5123754;27;20267;-83
2023/10/19 11:08:36;;;;;;;10.20;9.90;;;15.20;99.90;;;;;;5123971;27;20221;-83
2023/10/19 11:11:06;;;;;;;10.23;9.93;;;15.30;99.90;;;;;;5124006;27;20271;-83
2023/10/19 11:13:35;;;;;;;9.90;9.60;;;15.40;99.90;;;;;;5124487;28;20236;-84
2023/10/19 11:16:09;;;;;;;10.00;9.70;;;15.50;99.90;;;;;;5125359;27;20237;-84
2023/10/19 11:18:45;;;;;;;10.18;9.88;;;15.70;99.90;;;;;;5124529;28;20262;-83
2023/10/19 11:21:14;;;;;;;10.50;10.20;;;15.80;99.90;;;;;;5125041;28;20247;-84
2023/10/19 11:23:43;;;;;;;10.23;9.93;;;15.90;99.90;;;;;;5124414;27;20231;-83
2023/10/19 11:26:12;;;;;;;10.38;10.07;;;16.00;99.90;;;;;;5124868;28;20221;-84
2023/10/19 11:28:51;;;;;;;10.60;10.30;;;16.10;99.90;;;;;;5124578;28;20240;-84
2023/10/19 11:34:08;;;;;;;10.80;10.50;;;16.00;99.90;;;;;;5124924;28;20224;-82
2023/10/19 11:36:36;;;;;;;10.40;10.10;;;16.10;99.90;;;;;;5125900;28;20237;-83
2023/10/19 11:39:08;;;;;;;10.40;10.10;;;16.40;99.90;;;;;;5125467;28;20264;-82
2023/10/19 11:41:35;;;;;;;10.10;9.80;;;16.60;99.90;;;;;;5123931;28;20319;-82
2023/10/19 11:44:04;;;;;;;10.30;10.00;;;16.80;99.90;;;;;;5124422;28;20229;-84
2023/10/19 11:47:00;;;;;;;10.30;10.00;;;17.00;99.90;;;;;;5123669;28;20237;-81
2023/10/19 11:49:40;;;;;;;10.00;9.70;;;17.20;99.90;;;;;;5124737;28;20496;-83
2023/10/19 11:52:08;;;;;;;10.10;9.80;;;17.20;99.90;;;;;;5124223;28;20240;-82
2023/10/19 11:54:39;;;;;;;9.90;9.60;;;17.40;99.90;;;;;;5123416;27;20235;-81
2023/10/19 11:57:07;;;;;;;10.07;9.77;;;17.40;99.90;;;;;;5125046;28;20217;-82
2023/10/19 11:59:41;;;;;;;10.13;9.82;;;17.40;99.90;;;;;;5123851;28;20228;-83
2023/10/19 12:02:11;;;;;;;10.10;9.80;;;17.20;99.90;;;;;;5123219;28;20229;-82
2023/10/19 12:04:39;;;;;;;10.10;9.80;;;17.10;99.90;;;;;;5122094;27;20233;-82
2023/10/19 12:07:06;;;;;;;9.90;9.60;;;17.10;99.90;;;;;;5115271;28;20221;-82
2023/10/19 12:09:35;;;;;;;10.30;10.00;;;17.00;99.90;;;;;;5123793;27;20267;-81
2023/10/19 12:12:05;;;;;;;10.10;9.80;;;16.90;99.90;;;;;;5119562;28;20230;-81
2023/10/19 12:14:34;;;;;;;9.98;9.68;;;16.80;99.90;;;;;;5119965;28;20227;-81
2023/10/19 12:17:02;;;;;;;10.10;9.80;;;16.60;99.90;;;;;;5125782;27;20255;-82
2023/10/19 12:19:32;;;;;;;10.00;9.70;;;16.60;99.90;;;;;;5124397;27;20224;-83
2023/10/19 12:22:01;;;;;;;9.90;9.60;;;16.50;99.90;;;;;;5123763;27;20244;-81
2023/10/19 12:24:30;;;;;;;9.90;9.60;;;16.30;99.90;;;;;;5108534;27;20240;-82
2023/10/19 12:27:10;;;;;;;10.00;9.70;;;16.40;99.90;;;;;;5107331;28;20298;-84
2023/10/19 12:29:38;;;;;;;10.10;9.80;;;16.30;99.90;;;;;;5107874;28;20284;-82
2023/10/19 12:32:09;;;;;;;10.00;9.70;;;16.30;99.90;;;;;;5109202;28;20233;-81
2023/10/19 12:34:45;;;;;;;9.85;9.55;;;16.20;99.90;;;;;;5110415;28;20232;-83
2023/10/19 12:37:19;;;;;;;10.10;9.80;;;16.10;99.90;;;;;;5108950;28;20292;-82
2023/10/19 12:39:49;;;;;;;9.85;9.55;;;16.10;99.90;;;;;;5109302;28;20214;-81
2023/10/19 12:42:16;;;;;;;10.00;9.70;;;16.10;99.90;;;;;;5110958;28;20229;-81
2023/10/19 12:44:56;;;;;;;10.00;9.70;;;16.00;99.90;;;;;;5109323;28;20229;-82
2023/10/19 12:47:24;;;;;;;9.93;9.63;;;16.00;99.90;;;;;;5125871;28;20216;-82
2023/10/19 12:52:57;;;;;;;9.90;9.60;;;16.00;99.90;;;;;;5127974;28;20247;-82
2023/10/19 12:55:27;;;;;;;9.80;9.50;;;16.00;99.90;;;;;;5127460;28;20239;-82
2023/10/19 12:57:56;;;;;;;9.80;9.50;;;16.10;99.90;;;;;;5127361;28;20232;-81
2023/10/19 13:00:29;;;;;;;9.63;9.32;;;16.10;99.90;;;;;;5127073;27;20287;-81
2023/10/19 13:03:05;;;;;;;9.98;9.68;;;16.10;99.90;;;;;;5126736;28;20232;-81
2023/10/19 13:08:20;;;;;;;9.70;9.40;;;16.10;99.90;;;;;;5126400;27;20224;-81
2023/10/19 13:10:50;;;;;;;9.80;9.50;;;16.10;99.90;;;;;;5124506;27;20256;-82
2023/10/19 13:13:22;;;;;;;9.50;9.20;;;16.10;99.90;;;;;;5117240;28;20228;-80
2023/10/19 13:15:49;;;;;;;9.68;9.38;;;16.00;99.90;;;;;;5117519;28;20324;-81
2023/10/19 13:18:19;;;;;;;9.60;9.30;;;16.00;99.90;;;;;;5126220;27;20286;-81
2023/10/19 13:20:50;;;;;;;9.63;9.32;;;15.90;99.90;;;;;;5126121;27;21056;-81
2023/10/19 13:26:17;;;;;;;9.80;9.50;;;15.90;99.90;;;;;;5126489;27;20220;-81
2023/10/19 13:28:44;;;;;;;9.90;9.60;;;15.90;99.90;;;;;;5126442;27;20240;-83
2023/10/19 13:31:13;;;;;;;9.98;9.68;;;15.90;99.90;;;;;;5122742;27;20241;-81
2023/10/19 13:33:41;;;;;;;10.30;10.00;;;15.90;99.90;;;;;;5123958;28;20243;-82
2023/10/19 13:36:12;;;;;;;9.77;9.48;;;15.90;99.90;;;;;;5113823;27;20326;-81
2023/10/19 13:38:40;;;;;;;9.82;9.52;;;15.90;99.90;;;;;;5122950;28;20216;-81
2023/10/19 13:41:10;;;;;;;9.32;9.02;;;15.80;99.90;;;;;;5125474;27;20268;-81
2023/10/19 13:43:42;;;;;;;9.60;9.30;;;15.80;99.90;;;;;;5125981;27;20225;-82